Time;durP1;ratioP1;P1;durP2;ratioP2;P2;SDS_P1;SDS_P2;PMS_P1;PMS_P2;Temp;Humidity;BMP_temperature;BMP_pressure;BME280_temperature;BME280_humidity;BME280_pressure;Samples;Min_cycle;Max_cycle;Signal;HPM_P1;HPM_P2
2023/05/25 00:01:47;;;;;;;13.15;4.15;;;;;;;;;;5029612;28;20475;-58
2023/05/25 00:04:15;;;;;;;12.35;4.45;;;;;;;;;;5027689;28;20040;-58
2023/05/25 00:06:44;;;;;;;11.23;4.28;;;;;;;;;;5021055;28;20032;-58
2023/05/25 00:09:10;;;;;;;10.35;3.92;;;;;;;;;;5030800;28;20025;-58
2023/05/25 00:11:36;;;;;;;12.20;4.15;;;;;;;;;;5033420;28;20050;-58
2023/05/25 00:14:02;;;;;;;12.90;4.13;;;;;;;;;;5034973;28;20780;-58
2023/05/25 00:16:28;;;;;;;9.77;3.72;;;;;;;;;;5034248;28;20508;-58
2023/05/25 00:18:56;;;;;;;11.68;4.07;;;;;;;;;;5034070;28;20029;-58
2023/05/25 00:21:23;;;;;;;11.18;4.07;;;;;;;;;;5034235;28;20040;-58
2023/05/25 00:23:49;;;;;;;11.68;4.03;;;;;;;;;;5032685;28;20415;-58
2023/05/25 00:26:15;;;;;;;11.82;4.85;;;;;;;;;;5035641;28;21902;-58
2023/05/25 00:28:41;;;;;;;11.00;4.45;;;;;;;;;;5035583;28;20033;-58
2023/05/25 00:31:07;;;;;;;11.45;4.45;;;;;;;;;;5033470;28;20028;-58
2023/05/25 00:33:33;;;;;;;11.73;4.28;;;;;;;;;;5035290;28;20037;-58
2023/05/25 00:35:59;;;;;;;9.85;4.82;;;;;;;;;;5034919;28;20028;-58
2023/05/25 00:38:25;;;;;;;10.85;4.63;;;;;;;;;;5033361;28;20162;-58
2023/05/25 00:40:57;;;;;;;10.35;4.70;;;;;;;;;;5035668;28;20812;-58
2023/05/25 00:43:23;;;;;;;10.18;4.65;;;;;;;;;;5035759;28;20065;-58
2023/05/25 00:45:53;;;;;;;11.02;4.93;;;;;;;;;;5034916;28;20075;-58
2023/05/25 00:48:19;;;;;;;13.02;4.72;;;;;;;;;;5034396;28;20027;-58
2023/05/25 00:50:46;;;;;;;10.98;4.75;;;;;;;;;;5034189;28;20033;-58
2023/05/25 00:53:13;;;;;;;11.18;5.10;;;;;;;;;;5035339;28;20067;-58
2023/05/25 00:55:42;;;;;;;10.60;4.88;;;;;;;;;;5033775;28;21907;-58
2023/05/25 00:58:09;;;;;;;11.55;4.60;;;;;;;;;;5035206;28;20105;-58
2023/05/25 01:00:37;;;;;;;13.35;4.63;;;;;;;;;;5037389;28;20029;-58
2023/05/25 01:03:10;;;;;;;11.90;4.95;;;;;;;;;;5037633;28;20020;-58
2023/05/25 01:05:39;;;;;;;10.45;4.50;;;;;;;;;;5038482;28;20060;-58
2023/05/25 01:08:06;;;;;;;10.65;4.07;;;;;;;;;;5038545;28;20135;-58
2023/05/25 01:10:33;;;;;;;8.82;4.40;;;;;;;;;;5039356;28;20167;-58
2023/05/25 01:13:01;;;;;;;8.90;3.92;;;;;;;;;;5040530;28;20037;-58
2023/05/25 01:15:28;;;;;;;12.30;4.38;;;;;;;;;;5039483;28;20044;-58
2023/05/25 01:17:58;;;;;;;8.35;3.67;;;;;;;;;;5038698;28;20506;-58
2023/05/25 01:20:26;;;;;;;9.00;3.80;;;;;;;;;;5039587;28;20488;-58
2023/05/25 01:22:58;;;;;;;10.90;3.63;;;;;;;;;;5037689;28;20041;-58
2023/05/25 01:25:39;;;;;;;12.65;3.92;;;;;;;;;;5040040;28;20033;-59
2023/05/25 01:28:14;;;;;;;10.55;3.97;;;;;;;;;;5038625;28;20059;-58
2023/05/25 01:30:42;;;;;;;10.38;3.75;;;;;;;;;;5038776;28;20523;-58
2023/05/25 01:33:10;;;;;;;8.77;4.10;;;;;;;;;;5039375;28;20119;-58
2023/05/25 01:35:36;;;;;;;9.50;3.75;;;;;;;;;;5038938;28;20051;-58
2023/05/25 01:38:02;;;;;;;11.48;4.25;;;;;;;;;;5036933;28;20032;-58
2023/05/25 01:40:28;;;;;;;10.80;4.55;;;;;;;;;;5038686;28;20051;-58
2023/05/25 01:42:54;;;;;;;10.00;3.97;;;;;;;;;;5038874;28;20040;-58
2023/05/25 01:45:20;;;;;;;12.25;3.47;;;;;;;;;;5037006;28;20037;-58
2023/05/25 01:47:58;;;;;;;7.18;3.45;;;;;;;;;;5038152;28;20215;-58
2023/05/25 01:50:36;;;;;;;10.23;3.75;;;;;;;;;;5037493;28;20050;-58
2023/05/25 01:53:03;;;;;;;11.43;4.20;;;;;;;;;;5035359;28;20136;-58
2023/05/25 01:55:32;;;;;;;10.38;3.72;;;;;;;;;;5038394;28;20102;-58
2023/05/25 01:57:58;;;;;;;10.82;3.38;;;;;;;;;;5035693;28;20037;-58
2023/05/25 02:00:26;;;;;;;8.73;3.38;;;;;;;;;;5038336;28;20061;-58
2023/05/25 02:02:54;;;;;;;7.53;3.30;;;;;;;;;;5039337;28;20119;-58
2023/05/25 02:05:20;;;;;;;8.40;3.03;;;;;;;;;;5036841;28;20031;-58
2023/05/25 02:07:46;;;;;;;8.27;3.38;;;;;;;;;;5037265;28;20072;-58
2023/05/25 02:10:12;;;;;;;11.05;4.00;;;;;;;;;;5038694;28;20071;-58
2023/05/25 02:12:38;;;;;;;9.95;3.80;;;;;;;;;;5037396;28;20060;-58
2023/05/25 02:15:05;;;;;;;11.02;4.00;;;;;;;;;;5037763;28;20090;-58
2023/05/25 02:17:31;;;;;;;11.38;4.00;;;;;;;;;;5038946;28;20731;-58
2023/05/25 02:19:57;;;;;;;10.60;4.72;;;;;;;;;;5038168;28;20129;-58
2023/05/25 02:22:23;;;;;;;13.10;4.65;;;;;;;;;;5037797;28;20033;-58
2023/05/25 02:24:49;;;;;;;10.13;3.92;;;;;;;;;;5036917;28;20036;-58
2023/05/25 02:27:15;;;;;;;8.82;3.92;;;;;;;;;;5037978;28;20044;-58
2023/05/25 02:29:41;;;;;;;9.73;3.90;;;;;;;;;;5038174;28;20029;-58
2023/05/25 02:32:07;;;;;;;10.32;4.15;;;;;;;;;;5036999;28;20028;-58
2023/05/25 02:34:33;;;;;;;11.15;4.93;;;;;;;;;;5037561;28;20032;-58
2023/05/25 02:37:00;;;;;;;13.25;4.28;;;;;;;;;;5037284;28;20028;-58
2023/05/25 02:39:27;;;;;;;10.93;4.22;;;;;;;;;;5036921;28;20040;-58
2023/05/25 02:41:53;;;;;;;13.02;4.53;;;;;;;;;;5037542;28;20033;-58
2023/05/25 02:44:20;;;;;;;11.32;3.85;;;;;;;;;;5036618;28;20033;-58
2023/05/25 02:46:46;;;;;;;10.90;4.38;;;;;;;;;;5036353;28;20097;-58
2023/05/25 02:49:12;;;;;;;11.27;4.95;;;;;;;;;;5038306;28;20126;-58
2023/05/25 02:51:38;;;;;;;10.52;4.45;;;;;;;;;;5035460;28;20028;-58
2023/05/25 02:54:04;;;;;;;8.15;3.67;;;;;;;;;;5037302;28;20052;-58
2023/05/25 02:56:30;;;;;;;10.05;3.85;;;;;;;;;;5036872;28;20037;-58
2023/05/25 02:58:56;;;;;;;10.02;3.70;;;;;;;;;;5037779;28;20034;-58
2023/05/25 03:01:24;;;;;;;9.63;4.80;;;;;;;;;;5037741;28;20028;-58
2023/05/25 03:03:53;;;;;;;11.60;4.00;;;;;;;;;;5036729;28;21096;-58
2023/05/25 03:06:22;;;;;;;15.57;5.07;;;;;;;;;;5036867;28;20056;-58
2023/05/25 03:08:48;;;;;;;11.57;5.00;;;;;;;;;;5036355;28;20024;-58
2023/05/25 03:11:14;;;;;;;9.52;4.35;;;;;;;;;;5035303;28;20033;-58
2023/05/25 03:13:40;;;;;;;10.30;4.25;;;;;;;;;;5036786;28;20044;-58
2023/05/25 03:16:07;;;;;;;15.13;5.50;;;;;;;;;;5037778;28;20139;-58
2023/05/25 03:18:33;;;;;;;12.30;5.30;;;;;;;;;;5036654;28;20035;-58
2023/05/25 03:20:59;;;;;;;11.52;4.80;;;;;;;;;;5034621;28;20029;-58
2023/05/25 03:23:25;;;;;;;8.75;4.10;;;;;;;;;;5037251;28;20037;-58
2023/05/25 03:25:51;;;;;;;12.13;4.90;;;;;;;;;;5034172;28;20044;-58
2023/05/25 03:28:17;;;;;;;13.45;5.03;;;;;;;;;;5037721;28;20040;-58
2023/05/25 03:30:43;;;;;;;10.27;4.85;;;;;;;;;;5038141;28;20028;-58
2023/05/25 03:33:12;;;;;;;15.02;4.88;;;;;;;;;;5035446;28;20040;-58
2023/05/25 03:35:38;;;;;;;13.25;5.43;;;;;;;;;;5036847;28;20484;-58
2023/05/25 03:38:04;;;;;;;15.75;5.35;;;;;;;;;;5036622;28;20045;-58
2023/05/25 03:40:30;;;;;;;9.35;4.53;;;;;;;;;;5035761;28;20033;-58
2023/05/25 03:42:56;;;;;;;16.30;4.97;;;;;;;;;;5036429;28;20104;-58
2023/05/25 03:45:22;;;;;;;10.80;5.10;;;;;;;;;;5034226;28;20542;-58
2023/05/25 03:47:48;;;;;;;11.45;5.18;;;;;;;;;;5036254;28;20179;-58
2023/05/25 03:50:15;;;;;;;12.98;4.55;;;;;;;;;;5035631;28;20041;-58
2023/05/25 03:52:41;;;;;;;12.13;4.97;;;;;;;;;;5034360;28;20052;-58
2023/05/25 03:55:07;;;;;;;9.18;4.15;;;;;;;;;;5033521;28;20064;-58
2023/05/25 03:57:33;;;;;;;9.82;4.88;;;;;;;;;;5035040;28;21791;-58
2023/05/25 03:59:59;;;;;;;12.52;5.03;;;;;;;;;;5036510;28;20048;-58
2023/05/25 04:02:25;;;;;;;9.52;4.57;;;;;;;;;;5035440;28;20029;-58
2023/05/25 04:04:52;;;;;;;12.57;4.53;;;;;;;;;;5036087;28;20046;-58
2023/05/25 04:07:19;;;;;;;11.07;4.43;;;;;;;;;;5035648;28;20110;-58
2023/05/25 04:09:45;;;;;;;9.90;4.78;;;;;;;;;;5035589;28;20045;-58
2023/05/25 04:12:11;;;;;;;12.07;5.32;;;;;;;;;;5035681;28;20052;-58
2023/05/25 04:14:37;;;;;;;8.70;3.60;;;;;;;;;;5036938;28;20894;-57
2023/05/25 04:17:03;;;;;;;9.95;4.35;;;;;;;;;;5035920;28;20900;-58
2023/05/25 04:19:29;;;;;;;8.00;4.15;;;;;;;;;;5036523;28;20177;-58
2023/05/25 04:21:56;;;;;;;10.60;4.70;;;;;;;;;;5036818;28;20076;-58
2023/05/25 04:24:22;;;;;;;10.02;4.53;;;;;;;;;;5036188;28;20040;-58
2023/05/25 04:26:49;;;;;;;8.95;4.40;;;;;;;;;;5022325;28;20025;-57
2023/05/25 04:29:15;;;;;;;11.77;4.45;;;;;;;;;;5036953;28;20904;-58
2023/05/25 04:31:44;;;;;;;12.85;5.35;;;;;;;;;;5036587;28;20032;-58
2023/05/25 04:34:10;;;;;;;10.32;4.10;;;;;;;;;;5035311;28;20040;-58
2023/05/25 04:36:37;;;;;;;8.52;3.97;;;;;;;;;;5035592;28;20041;-58
2023/05/25 04:39:04;;;;;;;9.85;3.75;;;;;;;;;;5034992;28;20598;-58
2023/05/25 04:41:30;;;;;;;9.98;4.60;;;;;;;;;;5036206;28;20123;-58
2023/05/25 04:43:57;;;;;;;11.30;4.40;;;;;;;;;;5035480;28;20456;-58
2023/05/25 04:46:23;;;;;;;11.32;4.38;;;;;;;;;;5035773;28;20091;-58
2023/05/25 04:48:49;;;;;;;9.15;4.43;;;;;;;;;;5036388;28;20036;-58
2023/05/25 04:51:15;;;;;;;10.80;4.25;;;;;;;;;;5033221;28;20028;-58
2023/05/25 04:53:42;;;;;;;9.95;4.15;;;;;;;;;;5035632;28;20045;-58
2023/05/25 04:56:08;;;;;;;11.70;4.60;;;;;;;;;;5035857;28;20051;-58
2023/05/25 04:58:34;;;;;;;10.70;4.57;;;;;;;;;;5033948;28;20041;-58
2023/05/25 05:01:00;;;;;;;11.63;5.50;;;;;;;;;;5034782;28;20033;-58
2023/05/25 05:03:26;;;;;;;10.88;4.43;;;;;;;;;;5034695;28;20036;-58
2023/05/25 05:05:52;;;;;;;11.43;4.95;;;;;;;;;;5034833;28;20029;-58
2023/05/25 05:08:18;;;;;;;10.98;5.50;;;;;;;;;;5035059;28;20057;-58
2023/05/25 05:10:44;;;;;;;9.20;4.20;;;;;;;;;;5035086;28;20761;-58
2023/05/25 05:13:10;;;;;;;10.70;4.93;;;;;;;;;;5034339;28;20487;-58
2023/05/25 05:15:36;;;;;;;10.90;5.07;;;;;;;;;;5032678;28;20056;-58
2023/05/25 05:18:02;;;;;;;11.85;5.18;;;;;;;;;;5033794;28;20033;-58
2023/05/25 05:20:28;;;;;;;16.33;5.43;;;;;;;;;;5034497;28;20049;-58
2023/05/25 05:22:55;;;;;;;13.15;5.93;;;;;;;;;;5034358;28;20171;-58
2023/05/25 05:25:21;;;;;;;13.30;5.30;;;;;;;;;;5033459;28;20083;-58
2023/05/25 05:27:47;;;;;;;12.50;5.00;;;;;;;;;;5035098;28;20036;-58
2023/05/25 05:30:13;;;;;;;14.80;5.32;;;;;;;;;;5032394;28;20033;-58
2023/05/25 05:32:39;;;;;;;13.68;5.40;;;;;;;;;;5034812;28;20029;-58
2023/05/25 05:35:05;;;;;;;15.52;5.80;;;;;;;;;;5035416;28;20068;-58
2023/05/25 05:37:31;;;;;;;12.98;6.38;;;;;;;;;;5035563;28;20060;-58
2023/05/25 05:39:57;;;;;;;16.38;5.93;;;;;;;;;;5034797;28;20033;-58
2023/05/25 05:42:23;;;;;;;13.23;5.78;;;;;;;;;;5034761;28;20090;-58
2023/05/25 05:44:49;;;;;;;15.57;5.78;;;;;;;;;;5023074;28;21859;-59
2023/05/25 05:47:15;;;;;;;10.23;5.57;;;;;;;;;;5038199;28;20521;-64
2023/05/25 05:49:42;;;;;;;13.27;5.70;;;;;;;;;;5039117;28;20059;-64
2023/05/25 05:52:09;;;;;;;12.70;5.38;;;;;;;;;;5038712;28;20112;-64
2023/05/25 05:54:35;;;;;;;14.65;5.43;;;;;;;;;;5036729;28;20488;-64
2023/05/25 05:57:02;;;;;;;14.18;5.97;;;;;;;;;;5038263;28;20083;-64
2023/05/25 05:59:28;;;;;;;17.45;6.10;;;;;;;;;;5038323;28;20083;-64
2023/05/25 06:01:54;;;;;;;13.32;5.20;;;;;;;;;;5038350;28;20044;-64
2023/05/25 06:04:24;;;;;;;15.68;4.80;;;;;;;;;;5037905;28;20087;-64
2023/05/25 06:06:50;;;;;;;17.60;5.50;;;;;;;;;;5039067;28;20531;-64
2023/05/25 06:09:16;;;;;;;12.10;4.80;;;;;;;;;;5035825;28;20060;-64
2023/05/25 06:11:42;;;;;;;17.55;5.63;;;;;;;;;;5036745;28;20037;-64
2023/05/25 06:14:09;;;;;;;19.50;5.30;;;;;;;;;;5037638;28;20415;-64
2023/05/25 06:16:36;;;;;;;11.75;4.60;;;;;;;;;;5035654;28;20083;-64
2023/05/25 06:19:02;;;;;;;14.63;5.03;;;;;;;;;;5037057;28;20025;-64
2023/05/25 06:21:28;;;;;;;14.30;4.82;;;;;;;;;;5037688;28;20459;-64
2023/05/25 06:23:56;;;;;;;10.57;4.20;;;;;;;;;;5035967;28;20484;-64
2023/05/25 06:26:22;;;;;;;13.45;4.53;;;;;;;;;;5037044;28;20186;-64
2023/05/25 06:28:49;;;;;;;13.27;5.05;;;;;;;;;;5037738;28;20040;-65
2023/05/25 06:31:15;;;;;;;15.20;4.45;;;;;;;;;;5037730;28;20040;-64
2023/05/25 06:33:41;;;;;;;17.02;4.70;;;;;;;;;;5039087;28;20044;-64
2023/05/25 06:36:08;;;;;;;13.43;4.20;;;;;;;;;;5038854;28;20033;-64
2023/05/25 06:38:34;;;;;;;14.52;4.25;;;;;;;;;;5038010;28;20037;-64
2023/05/25 06:41:02;;;;;;;13.77;4.72;;;;;;;;;;5038884;28;20519;-64
2023/05/25 06:43:28;;;;;;;16.08;3.80;;;;;;;;;;5035887;28;20037;-64
2023/05/25 06:45:54;;;;;;;13.23;4.35;;;;;;;;;;5035868;28;20029;-65
2023/05/25 06:48:20;;;;;;;12.95;4.20;;;;;;;;;;5036624;28;20037;-65
2023/05/25 06:50:46;;;;;;;11.93;3.58;;;;;;;;;;5037157;28;20041;-65
2023/05/25 06:53:13;;;;;;;13.27;3.92;;;;;;;;;;5037761;28;20041;-59
2023/05/25 06:55:40;;;;;;;13.52;3.38;;;;;;;;;;5034968;28;20041;-59
2023/05/25 06:58:06;;;;;;;12.70;3.20;;;;;;;;;;5038207;28;20924;-59
2023/05/25 07:00:32;;;;;;;16.10;3.67;;;;;;;;;;5036751;28;20045;-59
2023/05/25 07:02:58;;;;;;;16.05;4.10;;;;;;;;;;5037073;28;20032;-59
2023/05/25 07:05:24;;;;;;;17.65;4.47;;;;;;;;;;5038158;28;20399;-59
2023/05/25 07:07:50;;;;;;;15.48;4.20;;;;;;;;;;5036571;28;20380;-59
2023/05/25 07:10:16;;;;;;;14.80;3.92;;;;;;;;;;5036420;28;20033;-59
2023/05/25 07:12:43;;;;;;;14.48;4.43;;;;;;;;;;5036315;28;20056;-59
2023/05/25 07:15:09;;;;;;;16.98;4.70;;;;;;;;;;5034974;28;20605;-59
2023/05/25 07:17:35;;;;;;;16.45;4.57;;;;;;;;;;5036197;28;20024;-59
2023/05/25 07:20:03;;;;;;;17.17;4.93;;;;;;;;;;5037086;28;20622;-59
2023/05/25 07:22:29;;;;;;;22.95;4.70;;;;;;;;;;5036472;28;20078;-65
2023/05/25 07:24:55;;;;;;;23.50;4.82;;;;;;;;;;5036818;28;20913;-65
2023/05/25 07:27:21;;;;;;;22.15;5.10;;;;;;;;;;5035712;28;20064;-65
2023/05/25 07:29:47;;;;;;;21.20;4.72;;;;;;;;;;5034224;28;20111;-65
2023/05/25 07:32:13;;;;;;;20.95;5.03;;;;;;;;;;5036267;28;20030;-65
2023/05/25 07:34:40;;;;;;;24.45;5.88;;;;;;;;;;5035807;28;20024;-65
2023/05/25 07:37:06;;;;;;;20.45;4.80;;;;;;;;;;5037235;28;20045;-65
2023/05/25 07:39:32;;;;;;;25.13;5.18;;;;;;;;;;5036272;28;20122;-65
2023/05/25 07:41:58;;;;;;;24.88;5.15;;;;;;;;;;5035027;28;20041;-65
2023/05/25 07:44:24;;;;;;;23.85;6.00;;;;;;;;;;5036670;28;20032;-65
2023/05/25 07:46:50;;;;;;;22.40;6.25;;;;;;;;;;5033499;28;20542;-65
2023/05/25 07:49:16;;;;;;;17.75;4.85;;;;;;;;;;5035344;28;20510;-65
2023/05/25 07:51:43;;;;;;;20.17;4.63;;;;;;;;;;5035918;28;20041;-65
2023/05/25 07:54:09;;;;;;;26.25;5.28;;;;;;;;;;5034776;28;20074;-64
2023/05/25 07:56:35;;;;;;;22.00;5.05;;;;;;;;;;5035565;28;20040;-65
2023/05/25 07:59:01;;;;;;;20.70;5.30;;;;;;;;;;5036181;28;20048;-65
2023/05/25 08:01:28;;;;;;;21.60;4.65;;;;;;;;;;5035444;28;20090;-65
2023/05/25 08:03:54;;;;;;;21.85;5.13;;;;;;;;;;5033056;28;20139;-65
2023/05/25 08:06:20;;;;;;;18.30;4.85;;;;;;;;;;5030013;28;20025;-65
2023/05/25 08:08:46;;;;;;;22.95;5.20;;;;;;;;;;5034344;28;20037;-65
2023/05/25 08:11:12;;;;;;;20.30;5.30;;;;;;;;;;5035636;28;20045;-65
2023/05/25 08:13:38;;;;;;;20.20;5.60;;;;;;;;;;5032094;28;20115;-66
2023/05/25 08:16:05;;;;;;;22.50;5.00;;;;;;;;;;5033761;28;20040;-65
2023/05/25 08:18:31;;;;;;;26.80;5.85;;;;;;;;;;5034453;28;20029;-65
2023/05/25 08:20:57;;;;;;;16.15;4.45;;;;;;;;;;5014982;28;20041;-65
2023/05/25 08:23:23;;;;;;;18.45;4.88;;;;;;;;;;5021100;28;20028;-65
2023/05/25 08:25:50;;;;;;;22.02;4.60;;;;;;;;;;5020776;28;20044;-64
2023/05/25 08:28:16;;;;;;;16.08;4.00;;;;;;;;;;5021562;28;20067;-65
2023/05/25 08:30:45;;;;;;;20.77;4.68;;;;;;;;;;5020718;28;20525;-65
2023/05/25 08:33:11;;;;;;;25.52;5.10;;;;;;;;;;5022185;28;20036;-65
2023/05/25 08:35:41;;;;;;;21.92;4.88;;;;;;;;;;5020188;28;20041;-65
2023/05/25 08:38:08;;;;;;;17.92;5.07;;;;;;;;;;5022289;28;20033;-65
2023/05/25 08:40:34;;;;;;;25.08;5.10;;;;;;;;;;5021058;28;20024;-65
2023/05/25 08:43:00;;;;;;;20.08;5.30;;;;;;;;;;5022895;28;20143;-65
2023/05/25 08:45:26;;;;;;;14.77;4.13;;;;;;;;;;5022920;28;20025;-65
2023/05/25 08:47:53;;;;;;;24.40;5.25;;;;;;;;;;5023265;28;20071;-65
2023/05/25 08:50:20;;;;;;;20.40;5.18;;;;;;;;;;5022793;28;20070;-65
2023/05/25 08:52:49;;;;;;;20.15;5.93;;;;;;;;;;5022254;28;21798;-64
2023/05/25 08:55:17;;;;;;;20.65;4.53;;;;;;;;;;5021994;28;20033;-65
2023/05/25 08:58:01;;;;;;;16.35;3.97;;;;;;;;;;5021929;28;20033;-65
2023/05/25 09:00:34;;;;;;;20.33;4.93;;;;;;;;;;5022703;28;20082;-65
2023/05/25 09:03:06;;;;;;;29.83;6.10;;;;;;;;;;5021430;28;20684;-65
2023/05/25 09:05:35;;;;;;;15.45;4.35;;;;;;;;;;5023014;28;21814;-65
2023/05/25 09:08:02;;;;;;;19.30;5.32;;;;;;;;;;5021079;28;20141;-65
2023/05/25 09:10:29;;;;;;;16.73;4.57;;;;;;;;;;5022072;28;20029;-66
2023/05/25 09:12:55;;;;;;;14.38;4.05;;;;;;;;;;5021645;28;20029;-65
2023/05/25 09:15:21;;;;;;;18.33;4.10;;;;;;;;;;5021827;28;20459;-65
2023/05/25 09:17:47;;;;;;;19.30;4.75;;;;;;;;;;5021727;28;20044;-66
2023/05/25 09:20:14;;;;;;;18.70;5.35;;;;;;;;;;5023512;28;20086;-65
2023/05/25 09:22:41;;;;;;;18.77;4.72;;;;;;;;;;5025959;28;20064;-65
2023/05/25 09:25:07;;;;;;;17.75;4.15;;;;;;;;;;5024232;28;20033;-65
2023/05/25 09:27:36;;;;;;;14.65;4.10;;;;;;;;;;5025920;28;20048;-65
2023/05/25 09:30:02;;;;;;;18.80;4.18;;;;;;;;;;5025782;28;20029;-65
2023/05/25 09:32:28;;;;;;;19.35;4.43;;;;;;;;;;5026056;28;20586;-65
2023/05/25 09:34:56;;;;;;;18.45;5.07;;;;;;;;;;5022654;28;21103;-65
2023/05/25 09:37:22;;;;;;;22.30;5.03;;;;;;;;;;5025386;28;20041;-66
2023/05/25 09:39:50;;;;;;;15.52;3.88;;;;;;;;;;5025506;28;20119;-65
2023/05/25 09:42:17;;;;;;;19.80;4.57;;;;;;;;;;5025203;28;20029;-66
2023/05/25 09:44:43;;;;;;;18.38;4.68;;;;;;;;;;5025123;28;20459;-65
2023/05/25 09:47:09;;;;;;;15.13;4.72;;;;;;;;;;5024824;28;21237;-66
2023/05/25 09:49:36;;;;;;;20.42;5.78;;;;;;;;;;5025133;28;20040;-65
2023/05/25 09:52:02;;;;;;;21.35;4.40;;;;;;;;;;5025253;28;20063;-65
2023/05/25 09:54:29;;;;;;;20.67;5.25;;;;;;;;;;5025729;28;20032;-65
2023/05/25 09:56:55;;;;;;;19.45;4.57;;;;;;;;;;5026113;28;20041;-65
2023/05/25 09:59:22;;;;;;;20.08;5.50;;;;;;;;;;5023650;28;20644;-65
2023/05/25 10:01:51;;;;;;;21.02;5.85;;;;;;;;;;5025262;28;20775;-65
2023/05/25 10:04:17;;;;;;;19.67;4.85;;;;;;;;;;5022841;28;20032;-65
2023/05/25 10:06:44;;;;;;;17.65;5.57;;;;;;;;;;5021096;28;20036;-65
2023/05/25 10:09:13;;;;;;;21.30;5.10;;;;;;;;;;5024470;28;20056;-65
2023/05/25 10:11:41;;;;;;;14.90;3.85;;;;;;;;;;5020449;28;20033;-65
2023/05/25 10:14:07;;;;;;;21.20;5.90;;;;;;;;;;5022053;28;20127;-66
2023/05/25 10:16:34;;;;;;;23.98;5.50;;;;;;;;;;5021978;28;21344;-66
2023/05/25 10:19:13;;;;;;;25.73;5.70;;;;;;;;;;5023599;28;20400;-65
2023/05/25 10:21:41;;;;;;;20.75;5.35;;;;;;;;;;5023172;28;20031;-65
2023/05/25 10:24:13;;;;;;;19.08;5.45;;;;;;;;;;5022355;28;20025;-65
2023/05/25 10:26:40;;;;;;;20.65;4.65;;;;;;;;;;5024948;28;20033;-65
2023/05/25 10:29:07;;;;;;;18.38;5.00;;;;;;;;;;5024883;28;20024;-65
2023/05/25 10:31:36;;;;;;;19.17;6.18;;;;;;;;;;5023309;28;21941;-65
2023/05/25 10:34:02;;;;;;;21.75;5.55;;;;;;;;;;5024592;28;20021;-65
2023/05/25 10:36:30;;;;;;;24.77;5.78;;;;;;;;;;5025431;28;20036;-65
2023/05/25 10:38:56;;;;;;;17.83;5.10;;;;;;;;;;5024336;28;20025;-65
2023/05/25 10:41:22;;;;;;;18.00;4.70;;;;;;;;;;5025301;28;20047;-66
2023/05/25 10:43:49;;;;;;;15.80;4.28;;;;;;;;;;5025103;28;22057;-65
2023/05/25 10:46:17;;;;;;;21.83;5.65;;;;;;;;;;5025251;28;20112;-66
2023/05/25 10:48:47;;;;;;;17.65;4.25;;;;;;;;;;5015400;28;20035;-64
2023/05/25 10:51:13;;;;;;;21.15;5.53;;;;;;;;;;5018960;28;20384;-64
2023/05/25 10:53:44;;;;;;;19.10;5.18;;;;;;;;;;5017185;28;20463;-65
2023/05/25 10:56:12;;;;;;;18.33;5.03;;;;;;;;;;5015930;28;20433;-64
2023/05/25 10:58:42;;;;;;;22.42;5.75;;;;;;;;;;5017874;28;22091;-65
2023/05/25 11:01:09;;;;;;;17.00;4.90;;;;;;;;;;5016502;28;20033;-64
2023/05/25 11:03:44;;;;;;;14.55;3.83;;;;;;;;;;5015523;28;20060;-64
2023/05/25 11:06:17;;;;;;;17.83;4.43;;;;;;;;;;5017329;28;20033;-65
2023/05/25 11:08:57;;;;;;;17.48;4.13;;;;;;;;;;5018405;28;21274;-65
2023/05/25 11:11:58;;;;;;;19.52;4.43;;;;;;;;;;5022316;28;20083;-65
2023/05/25 11:14:28;;;;;;;18.58;4.65;;;;;;;;;;4998895;28;20044;-65
2023/05/25 11:17:14;;;;;;;20.15;4.85;;;;;;;;;;5023056;28;20041;-65
2023/05/25 11:19:46;;;;;;;18.73;4.07;;;;;;;;;;5022886;28;20024;-65
2023/05/25 11:22:13;;;;;;;20.77;5.20;;;;;;;;;;5022692;28;20036;-65
2023/05/25 11:24:39;;;;;;;20.52;5.32;;;;;;;;;;5022171;28;20024;-65
2023/05/25 11:27:07;;;;;;;20.48;4.63;;;;;;;;;;5023596;28;20028;-65
2023/05/25 11:29:36;;;;;;;16.63;4.45;;;;;;;;;;5024455;28;20079;-65
2023/05/25 11:32:02;;;;;;;20.77;5.75;;;;;;;;;;5023118;28;20056;-65
2023/05/25 11:34:30;;;;;;;19.65;5.20;;;;;;;;;;5024542;28;20048;-65
2023/05/25 11:36:57;;;;;;;20.10;5.63;;;;;;;;;;5022106;28;20571;-65
2023/05/25 11:39:23;;;;;;;19.63;5.65;;;;;;;;;;5023783;28;20190;-65
2023/05/25 11:41:52;;;;;;;20.08;4.78;;;;;;;;;;5023234;28;20051;-64
2023/05/25 11:44:32;;;;;;;20.20;5.40;;;;;;;;;;5021950;28;20025;-65
2023/05/25 11:47:00;;;;;;;23.42;5.22;;;;;;;;;;5023807;28;22060;-64
2023/05/25 11:49:27;;;;;;;18.08;4.75;;;;;;;;;;5022358;28;20033;-65
2023/05/25 11:51:53;;;;;;;19.27;5.18;;;;;;;;;;5022478;28;20040;-65
2023/05/25 11:54:26;;;;;;;18.90;4.93;;;;;;;;;;5020094;28;20029;-64
2023/05/25 11:56:56;;;;;;;16.92;5.50;;;;;;;;;;5021536;28;20380;-65
2023/05/25 11:59:22;;;;;;;20.10;5.60;;;;;;;;;;5022208;28;20029;-65
2023/05/25 12:02:15;;;;;;;20.30;5.57;;;;;;;;;;5021899;28;20083;-65
2023/05/25 12:04:42;;;;;;;19.75;5.25;;;;;;;;;;5019659;28;20037;-65
2023/05/25 12:07:08;;;;;;;19.10;4.88;;;;;;;;;;5020573;28;20037;-65
2023/05/25 12:09:35;;;;;;;19.55;4.80;;;;;;;;;;5021719;28;20082;-65
2023/05/25 12:12:03;;;;;;;26.08;5.57;;;;;;;;;;5021977;28;20254;-65
2023/05/25 12:14:30;;;;;;;18.85;4.40;;;;;;;;;;5020648;28;20032;-64
2023/05/25 12:16:56;;;;;;;20.92;4.78;;;;;;;;;;5018841;28;20642;-65
2023/05/25 12:19:22;;;;;;;23.05;5.32;;;;;;;;;;5019577;28;20094;-65
2023/05/25 12:21:50;;;;;;;16.77;4.43;;;;;;;;;;5020193;28;21051;-64
2023/05/25 12:24:17;;;;;;;20.67;5.50;;;;;;;;;;5019102;28;20029;-65
2023/05/25 12:26:46;;;;;;;15.90;4.82;;;;;;;;;;5020568;28;20028;-64
2023/05/25 12:29:13;;;;;;;20.95;5.38;;;;;;;;;;5021370;28;20082;-65
2023/05/25 12:31:40;;;;;;;22.80;5.28;;;;;;;;;;5019744;28;20040;-65
2023/05/25 12:34:10;;;;;;;20.40;4.72;;;;;;;;;;5022358;28;20558;-65
2023/05/25 12:36:37;;;;;;;19.55;4.78;;;;;;;;;;5019736;28;20676;-65
2023/05/25 12:39:04;;;;;;;17.35;4.88;;;;;;;;;;5021601;28;20028;-65
2023/05/25 12:41:31;;;;;;;18.92;4.85;;;;;;;;;;5021580;28;20033;-65
2023/05/25 12:43:57;;;;;;;20.50;4.50;;;;;;;;;;5022264;28;20581;-65
2023/05/25 12:46:26;;;;;;;21.30;4.97;;;;;;;;;;5021971;28;20709;-65
2023/05/25 12:48:52;;;;;;;20.75;6.47;;;;;;;;;;5022133;28;20033;-65
2023/05/25 12:51:18;;;;;;;30.70;5.97;;;;;;;;;;5021702;28;20037;-65
2023/05/25 12:53:49;;;;;;;20.42;5.00;;;;;;;;;;5022720;28;20033;-65
2023/05/25 12:56:15;;;;;;;16.33;4.95;;;;;;;;;;5022665;28;20052;-65
2023/05/25 12:58:41;;;;;;;22.63;5.05;;;;;;;;;;5022106;28;20048;-65
2023/05/25 13:01:08;;;;;;;18.55;4.20;;;;;;;;;;5022137;28;20086;-65
2023/05/25 13:03:34;;;;;;;23.70;5.13;;;;;;;;;;5022545;28;20859;-65
2023/05/25 13:06:01;;;;;;;19.95;5.72;;;;;;;;;;5023198;28;20936;-66
2023/05/25 13:08:27;;;;;;;18.10;5.05;;;;;;;;;;5023209;28;20723;-65
2023/05/25 13:10:53;;;;;;;24.75;6.38;;;;;;;;;;5019183;28;20608;-65
2023/05/25 13:13:19;;;;;;;25.05;5.13;;;;;;;;;;5023130;28;20123;-65
2023/05/25 13:15:45;;;;;;;23.35;5.82;;;;;;;;;;5023132;28;20083;-65
2023/05/25 13:18:11;;;;;;;22.45;5.38;;;;;;;;;;5021267;28;21873;-65
2023/05/25 13:20:38;;;;;;;20.95;5.43;;;;;;;;;;5022708;28;20488;-65
2023/05/25 13:23:04;;;;;;;18.38;4.65;;;;;;;;;;5020590;28;20033;-65
2023/05/25 13:25:31;;;;;;;23.17;6.20;;;;;;;;;;5021971;28;20028;-65
2023/05/25 13:27:59;;;;;;;20.40;5.30;;;;;;;;;;5021203;28;20025;-65
2023/05/25 13:30:26;;;;;;;19.52;4.70;;;;;;;;;;5021976;28;20144;-65
2023/05/25 13:32:52;;;;;;;26.02;5.65;;;;;;;;;;5022697;28;20525;-65
2023/05/25 13:35:32;;;;;;;20.88;6.13;;;;;;;;;;5023235;28;20035;-65
2023/05/25 13:37:58;;;;;;;16.33;5.70;;;;;;;;;;5021357;28;20037;-65
2023/05/25 13:40:24;;;;;;;18.58;5.22;;;;;;;;;;5022140;28;20419;-65
2023/05/25 13:42:51;;;;;;;19.58;4.65;;;;;;;;;;5021826;28;20108;-65
2023/05/25 13:45:17;;;;;;;20.27;5.47;;;;;;;;;;5022432;28;20063;-65
2023/05/25 13:47:44;;;;;;;24.60;6.00;;;;;;;;;;5021588;28;20998;-60
2023/05/25 13:50:11;;;;;;;21.45;5.95;;;;;;;;;;5022215;28;21112;-60
2023/05/25 13:52:37;;;;;;;27.48;6.80;;;;;;;;;;5022257;28;20025;-60
2023/05/25 13:55:03;;;;;;;26.83;5.95;;;;;;;;;;5020071;28;20033;-60
2023/05/25 13:57:29;;;;;;;21.73;5.57;;;;;;;;;;5021490;28;20102;-60
2023/05/25 13:59:55;;;;;;;22.58;6.05;;;;;;;;;;5018691;28;20040;-60
2023/05/25 14:02:21;;;;;;;26.00;5.50;;;;;;;;;;5021142;28;20037;-60
2023/05/25 14:04:47;;;;;;;21.77;6.05;;;;;;;;;;5021431;28;20044;-60
2023/05/25 14:07:13;;;;;;;21.85;6.30;;;;;;;;;;5025345;28;20044;-60
2023/05/25 14:09:39;;;;;;;26.92;7.63;;;;;;;;;;5022357;28;20029;-60
2023/05/25 14:12:06;;;;;;;21.88;5.88;;;;;;;;;;5024622;28;20033;-60
2023/05/25 14:14:32;;;;;;;22.13;5.65;;;;;;;;;;5024993;28;20037;-60
2023/05/25 14:16:59;;;;;;;19.95;5.25;;;;;;;;;;5024620;28;20049;-60
2023/05/25 14:19:25;;;;;;;18.55;4.97;;;;;;;;;;5024298;28;20154;-60
2023/05/25 14:21:51;;;;;;;21.15;5.75;;;;;;;;;;5023140;28;20038;-60
2023/05/25 14:24:17;;;;;;;23.25;6.32;;;;;;;;;;5021827;28;20029;-60
2023/05/25 14:26:43;;;;;;;20.70;6.13;;;;;;;;;;5023226;28;20025;-60
2023/05/25 14:29:09;;;;;;;22.92;5.50;;;;;;;;;;5022952;28;20028;-60
2023/05/25 14:31:35;;;;;;;27.02;5.32;;;;;;;;;;5022011;28;20039;-60